Flight Track Log - Related Links

Times and Time Zones

All times are in EDT time to prevent confusion due to time zone crossing. See the VH-HLS flight status page for this flight to view local times or setup timezone preferences in your user account.

Time Position Orientation Groundspeed Altitude Reporting Facility
EDT Latitude Longitude Course Direction KTS MPH feet Rate Location/Type
Fri 07:52:45 AM -28.8928 114.7292 169° South 7,000  Level Aus ATC (Calculated)
Fri 07:53:34 AM -28.9477 114.7416 169° South 7,000 Level Aus ATC (Calculated)
Fri 07:55:00 AM -29.0143 114.7566 169° South  Level FlightAware Approximate
Fri 07:55:34 AM -28.9952 114.7523 169° South 7,000  Level Aus ATC (Calculated)
Fri 07:56:00 AM -29.0607 114.7671 169° South  Level FlightAware Approximate
Fri 07:56:54 AM -29.0991 114.7758 169° South 7,000  Level Aus ATC (Calculated)
Fri 07:57:00 AM -29.0618 114.7673 169° South  Level FlightAware Approximate
Fri 07:58:00 AM -29.1502 114.7873 169° South  Level FlightAware Approximate
Fri 07:59:00 AM -29.1967 114.7979 169° South  Level FlightAware Approximate
Fri 08:00:00 AM -29.2417 114.8081 169° South  Level FlightAware Approximate
Fri 08:01:00 AM -29.2882 114.8186 169° South  Level FlightAware Approximate
Fri 08:01:13 AM -29.2697 114.8144 169° South 7,000  Level Aus ATC (Calculated)
Fri 08:01:38 AM -29.2697 114.8144 169° South 7,000 12 Level Aus ATC (Calculated)
Fri 08:03:00 AM -29.3358 114.8294 169° South  Level FlightAware Approximate
Fri 08:04:00 AM -29.3842 114.8404 169° South  Level FlightAware Approximate
Fri 08:05:00 AM -29.4325 114.8514 169° South  Level FlightAware Approximate
Fri 08:06:00 AM -29.4809 114.8624 169° South  Level FlightAware Approximate
Fri 08:07:00 AM -29.5293 114.8735 169° South  Level FlightAware Approximate
Fri 08:08:00 AM -29.5777 114.8845 169° South  Level FlightAware Approximate
Fri 08:09:00 AM -29.6260 114.8956 169° South  Level FlightAware Approximate
Fri 08:09:20 AM -29.6724 114.9043 169° South 187 215 7,100  Level Aus ATC (RADAR)
Fri 08:09:35 AM -29.6850 114.9061 173° South 187 215 7,100  Level Aus ATC (RADAR)
Fri 08:11:50 AM -29.8048 114.9299 170° South 202 232 7,100  Level Aus ATC (RADAR)
Fri 08:12:00 AM -29.8140 114.9303 178° South 202 232 7,100  Level Aus ATC (RADAR)
Fri 08:13:40 AM -29.9000 114.9540 167° South 190 219 7,100  Level Aus ATC (RADAR)
Fri 08:14:10 AM -29.9246 114.9649 159° South 190 219 7,100  Level Aus ATC (RADAR)
Fri 08:16:00 AM -30.0213 114.9878 168° South 197 227 7,100  Level Aus ATC (RADAR)
Fri 08:16:40 AM -30.0566 114.9968 167° South 183 211 7,100  Level Aus ATC (RADAR)
Fri 08:17:14 AM -30.0897 114.9995 176° South 195 224  Descending Aus ATC (RADAR)
Fri 08:17:54 AM -30.1257 115.0097 166° South 196 226 7,100 6,086 Climbing Aus ATC (RADAR)
Fri 08:18:24 AM -30.1533 115.0129 174° South 197 227 7,100  Level Aus ATC (RADAR)
Fri 08:18:59 AM -30.1844 115.0199 169° South 196 226 7,100  Level Aus ATC (RADAR)
Fri 08:19:29 AM -30.2109 115.0269 167° South 194 223 7,100  Level Aus ATC (RADAR)
Fri 08:20:09 AM -30.2462 115.0370 166° South 196 226 7,100  Level Aus ATC (RADAR)
Fri 08:20:44 AM -30.2774 115.0441 169° South 194 223 7,100  Level Aus ATC (RADAR)
Fri 08:21:24 AM -30.3135 115.0559 164° South 201 231 7,100  Level Aus ATC (RADAR)
Fri 08:21:54 AM -30.3369 115.0722 149° Southeast 200 230 7,100  Level Aus ATC (RADAR)
Fri 08:22:29 AM -30.3662 115.0886 154° Southeast 197 227 7,100  Level Aus ATC (RADAR)
Fri 08:23:19 AM -30.4148 115.0921 176° South 207 238 7,100  Level Aus ATC (RADAR)
Fri 08:23:54 AM -30.4461 115.0967 173° South 198 228 7,100  Level Aus ATC (RADAR)
Fri 08:24:29 AM -30.4779 115.1015 173° South 199 229 7,100  Level Aus ATC (RADAR)
Fri 08:25:04 AM -30.5097 115.1074 171° South 199 229 7,100  Level Aus ATC (RADAR)
Fri 08:25:38 AM -30.5408 115.1159 167° South 198 228 7,100  Level Aus ATC (RADAR)
Fri 08:26:13 AM -30.5720 115.1252 165° South 200 230 7,100  Level Aus ATC (RADAR)
Fri 08:26:43 AM -30.5992 115.1333 166° South 199 229 7,100  Level Aus ATC (RADAR)
Fri 08:27:18 AM -30.6282 115.1449 161° South 186 214 7,100  Level Aus ATC (RADAR)
Fri 08:27:53 AM -30.6620 115.1517 170° South 204 235 7,100  Level Aus ATC (RADAR)
Fri 08:28:38 AM -30.7000 115.1708 157° South 201 231 7,100  Level Aus ATC (RADAR)
Fri 08:28:58 AM -30.7181 115.1799 157° South 209 241 7,100  Level Aus ATC (RADAR)
Fri 08:29:33 AM -30.7473 115.1981 152° Southeast 202 232 7,100  Level Aus ATC (RADAR)
Fri 08:30:08 AM -30.7776 115.2159 153° Southeast 202 232 7,100  Level Aus ATC (RADAR)
Fri 08:30:43 AM -30.8089 115.2317 157° South 203 234 7,100  Level Aus ATC (RADAR)
Fri 08:31:18 AM -30.8400 115.2466 158° South 202 232 7,100  Level Aus ATC (RADAR)
Fri 08:31:58 AM -30.8750 115.2637 157° South 204 235 7,100  Level Aus ATC (RADAR)
Fri 08:32:28 AM -30.9025 115.2754 160° South 208 239 7,100  Level Aus ATC (RADAR)
Fri 08:33:03 AM -30.9338 115.2879 161° South 200 230 7,100  Level Aus ATC (RADAR)
Fri 08:33:38 AM -30.9656 115.3027 158° South 204 235 7,100  Level Aus ATC (RADAR)
Fri 08:34:13 AM -30.9968 115.3190 156° South 205 236 7,100  Level Aus ATC (RADAR)
Fri 08:34:47 AM -31.0275 115.3367 154° Southeast 206 237 7,100  Level Aus ATC (RADAR)
Fri 08:35:27 AM -31.0624 115.3565 154° Southeast 207 238 7,100  Level Aus ATC (RADAR)
Fri 08:35:57 AM -31.0884 115.3711 154° Southeast 207 238 7,100  Level Aus ATC (RADAR)
Fri 08:36:32 AM -31.1191 115.3867 156° South 201 231 7,100  Level Aus ATC (RADAR)
Fri 08:37:07 AM -31.1498 115.4031 156° South 202 232 7,100  Level Aus ATC (RADAR)
Fri 08:37:42 AM -31.1808 115.4184 157° South 202 232 7,100  Level Aus ATC (RADAR)
Fri 08:38:22 AM -31.2158 115.4360 157° South 202 232 7,100  Level Aus ATC (RADAR)
Fri 08:38:52 AM -31.2422 115.4492 157° South 204 235 7,100  Level Aus ATC (RADAR)
Fri 08:39:22 AM -31.2688 115.4621 157° South 206 237 7,100  Level Aus ATC (RADAR)
Fri 08:39:57 AM -31.2999 115.4766 158° South 200 230 7,100  Level Aus ATC (RADAR)
Fri 08:40:37 AM -31.3353 115.4949 156° South 201 231 7,100  Level Aus ATC (RADAR)
Fri 08:41:07 AM -31.3621 115.5080 157° South 203 234 7,100 -171 Level Aus ATC (RADAR)
Fri 08:41:47 AM -31.3985 115.5263 157° South 213 245 6,900 -320 Descending Aus ATC (RADAR)
Fri 08:42:22 AM -31.4316 115.5429 157° South 221 254 6,700 -462 Descending Aus ATC (RADAR)
Fri 08:42:52 AM -31.4597 115.5573 156° South 220 253 6,400 -525 Descending Aus ATC (RADAR)
Fri 08:43:42 AM -31.5077 115.5818 156° South 220 253 6,000 -450 Descending Aus ATC (RADAR)
Fri 08:44:12 AM -31.5359 115.5967 156° South 218 251 5,800 -369 Descending Aus ATC (RADAR)
Fri 08:44:47 AM -31.5690 115.6131 157° South 218 251 5,600 -568 Descending Aus ATC (RADAR)
Fri 08:45:26 AM -31.6060 115.6316 157° South 217 250 5,100 -696 Descending Aus ATC (RADAR)
Fri 08:45:56 AM -31.6336 115.6453 157° South 217 250 4,800 -646 Descending Aus ATC (RADAR)
Fri 08:46:31 AM -31.6647 115.6606 157° South 207 238 4,400 -640 Descending Aus ATC (RADAR)
Fri 08:47:11 AM -31.7002 115.6773 158° South 201 231 4,000 -514 Descending Aus ATC (RADAR)
Fri 08:47:41 AM -31.7268 115.6901 158° South 201 231 3,800 -514 Descending Aus ATC (RADAR)
Fri 08:48:21 AM -31.7612 115.7088 155° Southeast 202 232 3,400 -514 Descending Aus ATC (RADAR)
Fri 08:48:51 AM -31.7875 115.7207 159° South 202 232 3,200 -554 Descending Aus ATC (RADAR)
Fri 08:49:26 AM -31.8175 115.7385 153° Southeast 207 238 2,800 -560 Descending Aus ATC (RADAR)
Fri 08:50:06 AM -31.8518 115.7542 159° South 196 226 2,500 -429 Descending Aus ATC (RADAR)
Fri 08:50:36 AM -31.8770 115.7685 154° Southeast 197 227 2,300 -369 Descending Aus ATC (RADAR)
Fri 08:51:11 AM -31.9059 115.7822 158° South 190 219 2,100 -240 Descending Aus ATC (RADAR)
Fri 08:51:51 AM -31.9379 115.7993 156° South 185 213 2,000 -86 Descending Aus ATC (RADAR)
Fri 08:52:21 AM -31.9609 115.8107 157° South 179 206 2,000  Level Aus ATC (RADAR)
Fri 08:53:01 AM -31.9914 115.8264 156° South 178 205 2,000  Level Aus ATC (RADAR)
Fri 08:53:41 AM -32.0211 115.8398 159° South 168 193 2,000 -185 Level Aus ATC (RADAR)
Fri 08:54:06 AM -32.0397 115.8477 160° South 167 192 1,800 -407 Descending Aus ATC (RADAR)
Fri 08:54:40 AM -32.0653 115.8602 158° South 171 197 1,600 -174 Descending Aus ATC (RADAR)
Fri 08:55:15 AM -32.0880 115.8743 152° Southeast 158 182 1,600 -277 Level Aus ATC (RADAR)
Fri 08:55:45 AM -32.0979 115.8957 119° Southeast 147 169 1,300 -514 Descending Aus ATC (RADAR)
Fri 08:56:25 AM -32.0996 115.9244 94° East 131 151 1,000 -480 Descending Aus ATC (RADAR)
Fri 08:57:00 AM -32.0832 115.9145 333° Northwest 108 124 700 -429 Descending Aus ATC (RADAR)
Fri 08:57:35 AM -32.0861 115.8978 258° West 92 106 500 -343 Descending Aus ATC (RADAR)
Fri 08:58:10 AM -32.0943 115.8832 236° Southwest 89 102 300 -400 Descending Aus ATC (RADAR)
Fri 08:58:20 AM -32.0966 115.8792 236° Southwest 89 102 200 -600 Descending Aus ATC (RADAR)

Login

Don't have an account? Register now (free) for customized features, flight alerts, and more!